Time;durP1;ratioP1;P1;durP2;ratioP2;P2;SDS_P1;SDS_P2;PMS_P1;PMS_P2;Temp;Humidity;BMP_temperature;BMP_pressure;BME280_temperature;BME280_humidity;BME280_pressure;Samples;Min_cycle;Max_cycle;Signal;HPM_P1;HPM_P2
2023/12/21 04:00:46;;;;;;;;;;;;;;;;;;6246622;23;19923;-73
2023/12/21 04:03:13;;;;;;;;;;;;;;;;;;6246265;23;19919;-73
2023/12/21 04:05:39;;;;;;;;;;;;;;;;;;6245981;23;20334;-73
2023/12/21 04:08:06;;;;;;;;;;;;;;;;;;6246354;23;19924;-72
2023/12/21 04:10:33;;;;;;;;;;;;;;;;;;6244539;22;20003;-67
2023/12/21 04:13:00;;;;;;;;;;;;;;;;;;6247042;23;19942;-69
2023/12/21 04:15:27;;;;;;;;;;;;;;;;;;6245903;23;20369;-69
2023/12/21 04:17:54;;;;;;;;;;;;;;;;;;6246355;23;19920;-71
2023/12/21 04:20:21;;;;;;;;;;;;;;;;;;6246320;23;19924;-69
2023/12/21 04:22:48;;;;;;;;;;;;;;;;;;6246160;23;19924;-69
2023/12/21 04:25:15;;;;;;;;;;;;;;;;;;6246131;23;19920;-69
2023/12/21 04:27:42;;;;;;;;;;;;;;;;;;6246193;23;19924;-69
2023/12/21 04:30:08;;;;;;;;;;;;;;;;;;6245708;23;19920;-69
2023/12/21 04:32:35;;;;;;;;;;;;;;;;;;6246103;23;19919;-69
2023/12/21 04:35:02;;;;;;;;;;;;;;;;;;6246196;23;19927;-69
2023/12/21 04:37:29;;;;;;;;;;;;;;;;;;6246110;23;19920;-69
2023/12/21 04:39:56;;;;;;;;;;;;;;;;;;6246129;23;19927;-69
2023/12/21 04:42:23;;;;;;;;;;;;;;;;;;6245835;23;19958;-69
2023/12/21 04:44:50;;;;;;;;;;;;;;;;;;6245970;23;19920;-69
2023/12/21 04:47:17;;;;;;;;;;;;;;;;;;6246009;23;19920;-69
2023/12/21 04:49:43;;;;;;;;;;;;;;;;;;6245608;23;20347;-69
2023/12/21 04:52:10;;;;;;;;;;;;;;;;;;6245899;23;19919;-69
2023/12/21 04:54:37;;;;;;;;;;;;;;;;;;6246081;23;19924;-69
2023/12/21 04:57:04;;;;;;;;;;;;;;;;;;6245982;23;19919;-69
2023/12/21 04:59:31;;;;;;;;;;;;;;;;;;6245968;23;19919;-70
2023/12/21 05:01:58;;;;;;;;;;;;;;;;;;6245860;23;19927;-70
2023/12/21 05:04:25;;;;;;;;;;;;;;;;;;6245933;23;19920;-71
2023/12/21 05:06:52;;;;;;;;;;;;;;;;;;6246872;23;20357;-71
2023/12/21 05:09:19;;;;;;;;;;;;;;;;;;6247875;23;19920;-71
2023/12/21 05:11:46;;;;;;;;;;;;;;;;;;6247671;23;19920;-71
2023/12/21 05:14:13;;;;;;;;;;;;;;;;;;6247827;23;19962;-70
2023/12/21 05:16:40;;;;;;;;;;;;;;;;;;6247724;23;19920;-70
2023/12/21 05:19:07;;;;;;;;;;;;;;;;;;6247660;23;20213;-70
2023/12/21 05:21:34;;;;;;;;;;;;;;;;;;6247546;23;19924;-70
2023/12/21 05:24:01;;;;;;;;;;;;;;;;;;6247596;23;19919;-70
2023/12/21 05:26:28;;;;;;;;;;;;;;;;;;6247193;23;20259;-74
2023/12/21 05:28:57;;;;;;;;;;;;;;;;;;6247664;23;19923;-70
2023/12/21 05:31:24;;;;;;;;;;;;;;;;;;6247476;23;19919;-70
2023/12/21 05:33:51;;;;;;;;;;;;;;;;;;6247599;23;19924;-70
2023/12/21 05:36:18;;;;;;;;;;;;;;;;;;6247190;23;19920;-70
2023/12/21 05:38:45;;;;;;;;;;;;;;;;;;6247606;23;20002;-70
2023/12/21 05:41:12;;;;;;;;;;;;;;;;;;6247202;23;20336;-70
2023/12/21 05:43:39;;;;;;;;;;;;;;;;;;6247496;23;19920;-70
2023/12/21 05:46:05;;;;;;;;;;;;;;;;;;6247730;23;19920;-70
2023/12/21 05:48:32;;;;;;;;;;;;;;;;;;6247440;23;19923;-70
2023/12/21 05:50:59;;;;;;;;;;;;;;;;;;6247894;23;19919;-70
2023/12/21 05:53:26;;;;;;;;;;;;;;;;;;6247450;23;19919;-70
2023/12/21 05:55:53;;;;;;;;;;;;;;;;;;6247366;23;19923;-70
2023/12/21 05:58:20;;;;;;;;;;;;;;;;;;6247329;23;19924;-71
2023/12/21 06:00:47;;;;;;;;;;;;;;;;;;6247269;23;19926;-69
2023/12/21 06:03:14;;;;;;;;;;;;;;;;;;6248349;23;19923;-69
2023/12/21 06:05:40;;;;;;;;;;;;;;;;;;6247682;23;19919;-69
2023/12/21 06:08:07;;;;;;;;;;;;;;;;;;6247402;23;19923;-69
2023/12/21 06:10:34;;;;;;;;;;;;;;;;;;6247282;23;19923;-69
2023/12/21 06:13:01;;;;;;;;;;;;;;;;;;6247362;23;19923;-69
2023/12/21 06:15:28;;;;;;;;;;;;;;;;;;6246812;23;20236;-69
2023/12/21 06:17:55;;;;;;;;;;;;;;;;;;6247270;23;19923;-69
2023/12/21 06:20:22;;;;;;;;;;;;;;;;;;6247261;23;19919;-69
2023/12/21 06:22:49;;;;;;;;;;;;;;;;;;6247181;23;19920;-69
2023/12/21 06:25:16;;;;;;;;;;;;;;;;;;6247551;23;19953;-69
2023/12/21 06:27:42;;;;;;;;;;;;;;;;;;6248982;23;19919;-69
2023/12/21 06:30:09;;;;;;;;;;;;;;;;;;6246782;23;20293;-69
2023/12/21 06:32:36;;;;;;;;;;;;;;;;;;6247104;23;19947;-69
2023/12/21 06:35:03;;;;;;;;;;;;;;;;;;6247162;23;20266;-68
2023/12/21 06:37:30;;;;;;;;;;;;;;;;;;6247098;23;19927;-68
2023/12/21 06:39:57;;;;;;;;;;;;;;;;;;6246993;23;19919;-68
2023/12/21 06:42:24;;;;;;;;;;;;;;;;;;6247047;23;19942;-68
2023/12/21 06:44:51;;;;;;;;;;;;;;;;;;6246906;23;19926;-68
2023/12/21 06:47:18;;;;;;;;;;;;;;;;;;6246527;23;20259;-68
2023/12/21 06:49:45;;;;;;;;;;;;;;;;;;6247242;23;19931;-68
2023/12/21 06:52:12;;;;;;;;;;;;;;;;;;6246839;23;19919;-68
2023/12/21 06:54:39;;;;;;;;;;;;;;;;;;6246567;23;20255;-68
2023/12/21 06:57:06;;;;;;;;;;;;;;;;;;6246858;23;19919;-68
2023/12/21 06:59:33;;;;;;;;;;;;;;;;;;6247116;23;19919;-69
2023/12/21 07:01:59;;;;;;;;;;;;;;;;;;6246916;23;19919;-69
2023/12/21 07:04:27;;;;;;;;;;;;;;;;;;6246622;23;19927;-69
2023/12/21 07:06:55;;;;;;;;;;;;;;;;;;6247539;23;19928;-69
2023/12/21 07:09:22;;;;;;;;;;;;;;;;;;6247010;23;19994;-69
2023/12/21 07:11:49;;;;;;;;;;;;;;;;;;6246300;23;19950;-69
2023/12/21 07:14:16;;;;;;;;;;;;;;;;;;6246973;23;19926;-69
2023/12/21 07:16:43;;;;;;;;;;;;;;;;;;6247138;23;19926;-70
2023/12/21 07:19:10;;;;;;;;;;;;;;;;;;6246914;23;19927;-69
2023/12/21 07:21:37;;;;;;;;;;;;;;;;;;6247061;23;19920;-69
2023/12/21 07:24:03;;;;;;;;;;;;;;;;;;6246259;23;20339;-69
2023/12/21 07:26:30;;;;;;;;;;;;;;;;;;6246756;23;19920;-69
2023/12/21 07:28:57;;;;;;;;;;;;;;;;;;6246003;23;20224;-69
2023/12/21 07:31:24;;;;;;;;;;;;;;;;;;6246610;23;19927;-69
2023/12/21 07:33:51;;;;;;;;;;;;;;;;;;6246558;23;19966;-69
2023/12/21 07:36:18;;;;;;;;;;;;;;;;;;6246553;23;19954;-70
2023/12/21 07:38:45;;;;;;;;;;;;;;;;;;6246602;23;19930;-70
2023/12/21 07:41:13;;;;;;;;;;;;;;;;;;6246500;23;19927;-70
2023/12/21 07:43:41;;;;;;;;;;;;;;;;;;6246558;23;20028;-69
2023/12/21 07:46:08;;;;;;;;;;;;;;;;;;6246508;23;19959;-69
2023/12/21 07:48:34;;;;;;;;;;;;;;;;;;6246158;23;19946;-69
2023/12/21 07:51:01;;;;;;;;;;;;;;;;;;6249235;23;19926;-69
2023/12/21 07:53:28;;;;;;;;;;;;;;;;;;6259287;23;19931;-69
2023/12/21 07:55:55;;;;;;;;;;;;;;;;;;6263087;23;19947;-69
2023/12/21 07:58:22;;;;;;;;;;;;;;;;;;6262631;23;19919;-69
2023/12/21 08:00:49;;;;;;;;;;;;;;;;;;6260384;23;20236;-70
2023/12/21 08:03:16;;;;;;;;;;;;;;;;;;6247308;23;20026;-70
2023/12/21 08:05:43;;;;;;;;;;;;;;;;;;6246404;23;20339;-70
2023/12/21 08:08:10;;;;;;;;;;;;;;;;;;6247815;23;19919;-69
2023/12/21 08:10:37;;;;;;;;;;;;;;;;;;6251159;23;19919;-70
2023/12/21 08:13:04;;;;;;;;;;;;;;;;;;6246812;23;20244;-70
2023/12/21 08:15:31;;;;;;;;;;;2.20;99.90;;;;;;6246458;23;19927;-70
2023/12/21 08:17:59;;;;;;;;;;;3.60;99.90;;;;;;6246458;23;19919;-70
2023/12/21 08:20:25;;;;;;;;;;;3.60;99.90;;;;;;6246768;23;19923;-70
2023/12/21 08:22:53;;;;;;;;;;;3.70;99.90;;;;;;6246255;23;19927;-69
2023/12/21 08:25:20;;;;;;;;;;;3.70;99.90;;;;;;6245983;23;19927;-69
2023/12/21 08:27:46;;;;;;;;;;;3.70;99.90;;;;;;6246464;23;20292;-69
2023/12/21 08:30:13;;;;;;;;;;;3.70;99.90;;;;;;6246825;23;20023;-70
2023/12/21 08:32:41;;;;;;;;;;;3.70;99.90;;;;;;6246090;23;19927;-67
2023/12/21 08:35:08;;;;;;;;;;;3.70;99.90;;;;;;6246237;23;20022;-68
2023/12/21 08:37:35;;;;;;;;;;;3.80;99.90;;;;;;6245800;23;20255;-68
2023/12/21 08:40:01;;;;;;;;;;;3.70;99.90;;;;;;6246133;23;19942;-68
2023/12/21 08:42:28;;;;;;;;;;;3.80;99.90;;;;;;6247806;23;19919;-68
2023/12/21 08:44:55;;;;;;;;;;;3.80;99.90;;;;;;6247974;23;19928;-68
2023/12/21 08:47:22;;;;;;;;;;;3.80;99.90;;;;;;6248161;23;19919;-68
2023/12/21 08:49:50;;;;;;;;;;;3.90;99.90;;;;;;6248051;23;19969;-68
2023/12/21 08:52:16;;;;;;;;;;;3.90;99.90;;;;;;6248490;23;19920;-68
2023/12/21 08:54:43;;;;;;;;;;;3.90;99.90;;;;;;6248536;23;20255;-68
2023/12/21 08:57:10;;;;;;;;;;;4.00;99.90;;;;;;6248104;23;19923;-68
2023/12/21 08:59:37;;;;;;;;;;;4.00;99.90;;;;;;6248410;23;20334;-68
2023/12/21 09:02:04;;;;;;;;;;;4.00;99.90;;;;;;6249429;23;19920;-68
2023/12/21 09:04:30;;;;;;;;;;;4.00;99.90;;;;;;6247917;23;20339;-68
2023/12/21 09:06:58;;;;;;;;;;;4.00;99.90;;;;;;6249627;23;19920;-68
2023/12/21 09:09:25;;;;;;;;;;;4.10;99.90;;;;;;6249934;23;20306;-69
2023/12/21 09:11:51;;;;;;;;;;;4.20;99.90;;;;;;6249522;23;19923;-69
2023/12/21 09:14:18;;;;;;;;;;;4.20;99.90;;;;;;6249631;23;19919;-69
2023/12/21 09:16:44;;;;;;;;;;;4.20;99.90;;;;;;6249922;23;19919;-68
2023/12/21 09:19:11;;;;;;;;;;;4.20;99.90;;;;;;6249235;23;19924;-69
2023/12/21 09:21:37;;;;;;;;;;;4.30;99.90;;;;;;6247752;23;20366;-69
2023/12/21 09:24:05;;;;;;;;;;;4.30;99.90;;;;;;6247560;23;20365;-69
2023/12/21 09:26:32;;;;;;;;;;;4.40;99.90;;;;;;6247843;23;19919;-69
2023/12/21 09:28:59;;;;;;;;;;;4.40;99.90;;;;;;6247861;23;20003;-69
2023/12/21 09:31:26;;;;;;;;;;;4.40;99.90;;;;;;6247811;23;19924;-69
2023/12/21 09:33:55;;;;;;;;;;;4.40;99.90;;;;;;6247197;23;20233;-68
2023/12/21 09:36:21;;;;;;;;;;;4.50;99.90;;;;;;6247655;23;19919;-68
2023/12/21 09:38:48;;;;;;;;;;;4.50;99.90;;;;;;6247590;23;19926;-68
2023/12/21 09:41:16;;;;;;;;;;;4.60;99.90;;;;;;6247513;23;19919;-68
2023/12/21 09:43:43;;;;;;;;;;;4.60;99.90;;;;;;6248433;23;19919;-68
2023/12/21 09:46:09;;;;;;;;;;;4.60;99.90;;;;;;6247795;23;19919;-68
2023/12/21 09:48:37;;;;;;;;;;;4.70;99.90;;;;;;6247524;23;20271;-68
2023/12/21 09:51:05;;;;;;;;;;;4.80;99.90;;;;;;6247012;23;19973;-68
2023/12/21 09:53:33;;;;;;;;;;;4.90;99.90;;;;;;6247495;23;19966;-68
2023/12/21 09:56:00;;;;;;;;;;;4.80;99.90;;;;;;6247162;23;19969;-69
2023/12/21 09:58:30;;;;;;;;;;;4.80;99.90;;;;;;6247554;23;19923;-69
2023/12/21 10:00:56;;;;;;;;;;;4.90;99.90;;;;;;6247162;23;20358;-69
2023/12/21 10:03:23;;;;;;;;;;;5.00;99.90;;;;;;6247404;23;19920;-68
2023/12/21 10:05:50;;;;;;;;;;;5.00;99.90;;;;;;6247294;23;19919;-68
2023/12/21 10:08:18;;;;;;;;;;;5.10;99.90;;;;;;6246916;23;20373;-68
2023/12/21 10:10:44;;;;;;;;;;;5.10;99.90;;;;;;6247093;23;19920;-68
2023/12/21 10:13:12;;;;;;;;;;;5.20;99.90;;;;;;6247583;23;19923;-69
2023/12/21 10:15:42;;;;;;;;;;;5.20;99.90;;;;;;6247247;23;19926;-69
2023/12/21 10:18:09;;;;;;;;;;;5.20;99.90;;;;;;6246931;23;20350;-71
2023/12/21 10:20:36;;;;;;;;;;;5.20;99.90;;;;;;6247061;23;19920;-70
2023/12/21 10:23:03;;;;;;;;;;;;;;;;;;6247744;23;19919;-70
2023/12/21 10:25:30;;;;;;;;;;;;;;;;;;6247171;23;19919;-70
2023/12/21 10:27:56;;;;;;;;;;;;;;;;;;6247422;23;19930;-70
2023/12/21 10:30:23;;;;;;;;;;;;;;;;;;6247931;23;19946;-70
2023/12/21 10:32:50;;;;;;;;;;;;;;;;;;6247858;23;19920;-70
2023/12/21 10:35:17;;;;;;;;;;;;;;;;;;6247389;23;19924;-70
2023/12/21 10:37:44;;;;;;;;;;;;;;;;;;6247346;23;19928;-70
2023/12/21 10:40:13;;;;;;;;;;;;;;;;;;6247028;23;20343;-71
2023/12/21 10:42:40;;;;;;;;;;;;;;;;;;6247203;23;20251;-71
2023/12/21 10:45:07;;;;;;;;;;;;;;;;;;6247902;23;19930;-71
2023/12/21 10:47:34;;;;;;;;;;;;;;;;;;6247527;23;19923;-71
2023/12/21 10:50:01;;;;;;;;;;;;;;;;;;6247349;23;19970;-71
2023/12/21 10:52:28;;;;;;;;;;;;;;;;;;6246712;23;20301;-71
2023/12/21 10:54:55;;;;;;;;;;;;;;;;;;6248023;23;19919;-71
2023/12/21 10:57:22;;;;;;;;;;;;;;;;;;6247039;23;19927;-71
2023/12/21 10:59:49;;;;;;;;;;;;;;;;;;6247784;23;19923;-71
2023/12/21 11:02:16;;;;;;;;;;;;;;;;;;6247962;23;19919;-71
2023/12/21 11:04:43;;;;;;;;;;;;;;;;;;6247010;23;19926;-72
2023/12/21 11:07:10;;;;;;;;;;;;;;;;;;6246921;23;19927;-71
2023/12/21 11:09:38;;;;;;;;;;;;;;;;;;6246770;23;19931;-71
2023/12/21 11:12:06;;;;;;;;;;;;;;;;;;6246354;23;19919;-71
2023/12/21 11:14:32;;;;;;;;;;;;;;;;;;6246979;23;19920;-72
2023/12/21 11:16:59;;;;;;;;;;;;;;;;;;6246937;23;19927;-72
2023/12/21 11:19:26;;;;;;;;;;;;;;;;;;6246696;23;20343;-72
2023/12/21 11:21:53;;;;;;;;;;;;;;;;;;6247233;23;19923;-71
2023/12/21 11:24:20;;;;;;;;;;;;;;;;;;6247196;23;19920;-72
2023/12/21 11:26:47;;;;;;;;;;;;;;;;;;6246649;23;19923;-72
2023/12/21 11:29:14;;;;;;;;;;;;;;;;;;6247474;23;20237;-71
2023/12/21 11:31:41;;;;;;;;;;;;;;;;;;6246857;23;19923;-72
2023/12/21 11:34:07;;;;;;;;;;;;;;;;;;6246956;23;19931;-72
2023/12/21 11:36:35;;;;;;;;;;;;;;;;;;6246636;23;20213;-72
2023/12/21 11:39:02;;;;;;;;;;;;;;;;;;6247278;23;19920;-72
2023/12/21 11:41:29;;;;;;;;;;;;;;;;;;6246527;23;19920;-71
2023/12/21 11:43:55;;;;;;;;;;;;;;;;;;6246830;23;19919;-71
2023/12/21 11:46:22;;;;;;;;;;;;;;;;;;6246528;23;19926;-71
2023/12/21 11:48:49;;;;;;;;;;;;;;;;;;6246708;23;19919;-72
2023/12/21 11:51:16;;;;;;;;;;;;;;;;;;6246863;23;20266;-72
2023/12/21 11:53:43;;;;;;;;;;;;;;;;;;6247136;23;19927;-71
2023/12/21 11:56:10;;;;;;;;;;;;;;;;;;6246551;23;20240;-74
2023/12/21 11:58:37;;;;;;;;;;;;;;;;;;6246656;23;19920;-72
2023/12/21 12:01:04;;;;;;;;;;;;;;;;;;6246616;23;19923;-72
2023/12/21 12:03:31;;;;;;;;;;;;;;;;;;6246585;23;20328;-72
2023/12/21 12:05:57;;;;;;;;;;;;;;;;;;6247953;23;20019;-71
2023/12/21 12:08:24;;;;;;;;;;;;;;;;;;6247140;23;19919;-72
2023/12/21 12:10:51;;;;;;;;;;;;;;;;;;6246900;23;19919;-72
2023/12/21 12:13:19;;;;;;;;;;;;;;;;;;6247424;23;19934;-72
2023/12/21 12:15:47;;;;;;;;;;;;;;;;;;6248821;23;19920;-72
2023/12/21 12:18:14;;;;;;;;;;;;;;;;;;6249625;23;19926;-71
2023/12/21 12:20:41;;;;;;;;;;;;;;;;;;6250447;23;19947;-71
2023/12/21 12:23:08;;;;;;;;;;;;;;;;;;6249385;23;19931;-71
2023/12/21 12:25:35;;;;;;;;;;;;;;;;;;6249246;23;19923;-71
2023/12/21 12:28:03;;;;;;;;;;;;;;;;;;6249405;23;19919;-71
2023/12/21 12:30:30;;;;;;;;;;;;;;;;;;6249040;23;20343;-72
2023/12/21 12:33:02;;;;;;;;;;;;;;;;;;6249979;23;19920;-71
2023/12/21 12:35:29;;;;;;;;;;;;;;;;;;6250077;23;19920;-71
2023/12/21 12:37:56;;;;;;;;;;;;;;;;;;6248558;23;20263;-71
2023/12/21 12:40:23;;;;;;;;;;;;;;;;;;6248039;23;19919;-71
2023/12/21 12:42:50;;;;;;;;;;;;;;;;;;6247632;23;19919;-71
2023/12/21 12:45:18;;;;;;;;;;;;;;;;;;6248127;23;19919;-70
2023/12/21 12:47:45;;;;;;;;;;;;;;;;;;6247554;23;19956;-70
2023/12/21 12:50:12;;;;;;;;;;;;;;;;;;6247930;23;19920;-70
2023/12/21 12:52:38;;;;;;;;;;;;;;;;;;6248413;23;19930;-70
2023/12/21 12:55:07;;;;;;;;;;;;;;;;;;6247472;23;20355;-70
2023/12/21 12:57:33;;;;;;;;;;;;;;;;;;6247725;23;19927;-70
2023/12/21 13:00:00;;;;;;;;;;;;;;;;;;6247684;23;19970;-71
2023/12/21 13:02:27;;;;;;;;;;;;;;;;;;6247713;23;19923;-71
2023/12/21 13:04:54;;;;;;;;;;;;;;;;;;6247821;23;19920;-71
2023/12/21 13:07:21;;;;;;;;;;;;;;;;;;6247853;23;19919;-71
2023/12/21 13:09:48;;;;;;;;;;;;;;;;;;6247988;23;19920;-71
2023/12/21 13:12:15;;;;;;;;;;;;;;;;;;6247477;23;19926;-71
2023/12/21 13:14:42;;;;;;;;;;;;;;;;;;6247670;23;19931;-71
2023/12/21 13:17:10;;;;;;;;;;;;;;;;;;6247746;23;19920;-71
2023/12/21 13:19:37;;;;;;;;;;;;;;;;;;6247624;23;19926;-71
2023/12/21 13:22:04;;;;;;;;;;;;;;;;;;6247598;23;19920;-71
2023/12/21 13:24:31;;;;;;;;;;;;;;;;;;6247672;23;19920;-71
2023/12/21 13:26:58;;;;;;;;;;;;;;;;;;6246646;23;20256;-71
2023/12/21 13:29:25;;;;;;;;;;;;;;;;;;6247452;23;19919;-71
2023/12/21 13:31:52;;;;;;;;;;;;;;;;;;6246927;23;20254;-71
2023/12/21 13:34:19;;;;;;;;;;;;;;;;;;6247501;23;19927;-71
2023/12/21 13:36:46;;;;;;;;;;;;;;;;;;6247484;23;19920;-71
2023/12/21 13:39:13;;;;;;;;;;;;;;;;;;6247487;23;19923;-72
2023/12/21 13:41:39;;;;;;;;;;;;;;;;;;6247328;23;19924;-72
2023/12/21 13:44:06;;;;;;;;;;;;;;;;;;6247233;23;19920;-71
2023/12/21 13:46:33;;;;;;;;;;;;;;;;;;6247334;23;20339;-71
2023/12/21 13:49:00;;;;;;;;;;;;;;;;;;6248024;23;19920;-72
2023/12/21 13:51:27;;;;;;;;;;;;;;;;;;6248139;23;19945;-72
2023/12/21 13:53:54;;;;;;;;;;;;;;;;;;6247553;23;20026;-72
2023/12/21 13:56:21;;;;;;;;;;;;;;;;;;6247491;23;19920;-72
2023/12/21 13:58:48;;;;;;;;;;;;;;;;;;6247583;23;19947;-72
2023/12/21 14:01:17;;;;;;;;;;;;;;;;;;6247254;23;20259;-72
2023/12/21 14:03:44;;;;;;;;;;;;;;;;;;6251928;23;19987;-71
2023/12/21 14:06:11;;;;;;;;;;;;;;;;;;6254113;23;19926;-71
2023/12/21 14:08:38;;;;;;;;;;;;;;;;;;6254797;23;19919;-71
2023/12/21 14:11:05;;;;;;;;;;;;;;;;;;6253489;23;19920;-71
2023/12/21 14:13:32;;;;;;;;;;;;;;;;;;6252749;23;19920;-71
2023/12/21 14:15:59;;;;;;;;;;;;;;;;;;6250654;23;19924;-71
2023/12/21 14:18:26;;;;;;;;;;;;;;;;;;6248717;23;19919;-71
2023/12/21 14:20:54;;;;;;;;;;;;;;;;;;6249027;23;19970;-71
2023/12/21 14:23:21;;;;;;;;;;;;;;;;;;6249424;23;19926;-71
2023/12/21 14:25:48;;;;;;;;;;;;;;;;;;6249135;23;19920;-70
2023/12/21 14:28:15;;;;;;;;;;;;;;;;;;6249213;23;20007;-70
2023/12/21 14:30:42;;;;;;;;;;;;;;;;;;6247877;23;20352;-71
2023/12/21 14:33:09;;;;;;;;;;;;;;;;;;6247700;23;19929;-70
2023/12/21 14:35:36;;;;;;;;;;;;;;;;;;6247313;23;19942;-70
2023/12/21 14:38:03;;;;;;;;;;;;;;;;;;6246830;23;19926;-70
2023/12/21 14:40:30;;;;;;;;;;;;;;;;;;6248406;23;20343;-71
2023/12/21 14:42:58;;;;;;;;;;;;;;;;;;6248330;23;20266;-71
2023/12/21 14:45:25;;;;;;;;;;;;;;;;;;6248237;23;20296;-68
2023/12/21 14:47:52;;;;;;;;;;;;;;;;;;6248256;23;19923;-68
2023/12/21 14:50:19;;;;;;;;;;;;;;;;;;6248298;23;20298;-68
2023/12/21 14:52:46;;;;;;;;;;;;;;;;;;6247597;23;19919;-70
2023/12/21 14:55:13;;;;;;;;;;;;;;;;;;6247991;23;19947;-70
2023/12/21 14:57:40;;;;;;;;;;;;;;;;;;6247598;23;20262;-70
2023/12/21 15:00:09;;;;;;;;;;;;;;;;;;6247961;23;19919;-71
2023/12/21 15:02:36;;;;;;;;;;;;;;;;;;6248396;23;19966;-70
2023/12/21 15:05:03;;;;;;;;;;;;;;;;;;6248027;23;19991;-70
2023/12/21 15:07:30;;;;;;;;;;;;;;;;;;6247146;23;19928;-70
2023/12/21 15:10:01;;;;;;;;;;;;;;;;;;6247295;23;20336;-70
2023/12/21 15:12:28;;;;;;;;;;;;;;;;;;6247441;23;19926;-70
2023/12/21 15:14:55;;;;;;;;;;;;;;;;;;6248715;23;20347;-70
2023/12/21 15:17:23;;;;;;;;;;;;;;;;;;6247927;23;20335;-67
2023/12/21 15:19:50;;;;;;;;;;;;;;;;;;6247722;23;19924;-67
2023/12/21 15:22:17;;;;;;;;;;;;;;;;;;6247167;23;19920;-67
2023/12/21 15:24:44;;;;;;;;;;;;;;;;;;6246474;23;20223;-67
2023/12/21 15:27:11;;;;;;;;;;;;;;;;;;6246653;23;19926;-68
2023/12/21 15:29:38;;;;;;;;;;;;;;;;;;6246733;23;19920;-68
2023/12/21 15:32:05;;;;;;;;;;;;;;;;;;6246906;23;19919;-68
2023/12/21 15:34:34;;;;;;;;;;;;;;;;;;6248284;23;19951;-68
2023/12/21 15:37:01;;;;;;;;;;;;;;;;;;6247224;23;19939;-68
2023/12/21 15:39:28;;;;;;;;;;;;;;;;;;6247103;23;19920;-69
2023/12/21 15:41:56;;;;;;;;;;;;;;;;;;6246515;23;19919;-69
2023/12/21 15:44:24;;;;;;;;;;;;;;;;;;6247312;23;19919;-69
2023/12/21 15:46:51;;;;;;;;;;;;;;;;;;6247067;23;19919;-69
2023/12/21 15:49:20;;;;;;;;;;;;;;;;;;6246403;23;19978;-69
2023/12/21 15:51:47;;;;;;;;;;;;;;;;;;6247745;23;19973;-72
2023/12/21 15:54:15;;;;;;;;;;;;;;;;;;6246626;23;19920;-72
2023/12/21 15:56:42;;;;;;;;;;;;;;;;;;6246404;23;19920;-72
2023/12/21 15:59:09;;;;;;;;;;;;;;;;;;6246952;23;19920;-72
2023/12/21 16:01:36;;;;;;;;;;;;;;;;;;6246555;23;19919;-72
2023/12/21 16:04:04;;;;;;;;;;;;;;;;;;6246483;23;19920;-72
2023/12/21 16:06:31;;;;;;;;;;;;;;;;;;6246625;23;19924;-72
2023/12/21 16:08:58;;;;;;;;;;;;;;;;;;6246644;23;20267;-72
2023/12/21 16:11:25;;;;;;;;;;;;;;;;;;6246244;23;19920;-72
2023/12/21 16:13:52;;;;;;;;;;;;;;;;;;6246614;23;19943;-72
2023/12/21 16:16:19;;;;;;;;;;;;;;;;;;6246739;23;19926;-72
2023/12/21 16:18:46;;;;;;;;;;;;;;;;;;6246475;23;20374;-73
2023/12/21 16:21:13;;;;;;;;;;;;;;;;;;6246223;23;20002;-71
2023/12/21 16:23:40;;;;;;;;;;;;;;;;;;6246400;23;19923;-71
2023/12/21 16:26:07;;;;;;;;;;;;;;;;;;6246275;23;19920;-71
2023/12/21 16:28:34;;;;;;;;;;;;;;;;;;6245776;23;20320;-71
2023/12/21 16:31:02;;;;;;;;;;;;;;;;;;6245782;23;19920;-72
2023/12/21 16:33:29;;;;;;;;;;;;;;;;;;6245923;23;20263;-71
2023/12/21 16:35:56;;;;;;;;;;;;;;;;;;6246467;23;19923;-70
2023/12/21 16:38:23;;;;;;;;;;;;;;;;;;6246266;23;20332;-70
2023/12/21 16:40:50;;;;;;;;;;;;;;;;;;6245719;23;19927;-70
2023/12/21 16:43:17;;;;;;;;;;;;;;;;;;6246068;23;19927;-70
2023/12/21 16:45:44;;;;;;;;;;;;;;;;;;6246074;23;19991;-70
2023/12/21 16:48:11;;;;;;;;;;;;;;;;;;6246022;23;19930;-70
2023/12/21 16:50:38;;;;;;;;;;;;;;;;;;6246082;23;19973;-70
2023/12/21 16:53:05;;;;;;;;;;;;;;;;;;6246210;23;19927;-70
2023/12/21 16:55:32;;;;;;;;;;;;;;;;;;6246521;23;19947;-70
2023/12/21 16:58:00;;;;;;;;;;;;;;;;;;6246123;23;19919;-70
2023/12/21 17:00:27;;;;;;;;;;;;;;;;;;6245751;23;19920;-70
2023/12/21 17:02:54;;;;;;;;;;;;;;;;;;6246928;23;20295;-70
2023/12/21 17:05:21;;;;;;;;;;;;;;;;;;6248081;23;19924;-70
2023/12/21 17:07:48;;;;;;;;;;;;;;;;;;6248134;23;19927;-70
2023/12/21 17:10:15;;;;;;;;;;;;;;;;;;6247597;23;20290;-70
2023/12/21 17:12:42;;;;;;;;;;;;;;;;;;6247391;23;19923;-71
2023/12/21 17:15:09;;;;;;;;;;;;;;;;;;6247843;23;19926;-71
2023/12/21 17:17:36;;;;;;;;;;;;;;;;;;6247876;23;19942;-71
2023/12/21 17:20:03;;;;;;;;;;;;;;;;;;6247945;23;19919;-71
2023/12/21 17:22:30;;;;;;;;;;;;;;;;;;6247760;23;19943;-71
2023/12/21 17:24:57;;;;;;;;;;;;;;;;;;6247752;23;19966;-70
2023/12/21 17:27:24;;;;;;;;;;;;;;;;;;6247759;23;19950;-71
2023/12/21 17:29:50;;;;;;;;;;;;;;;;;;6248340;23;20216;-72
2023/12/21 17:32:17;;;;;;;;;;;;;;;;;;6247629;23;19920;-70
2023/12/21 17:34:44;;;;;;;;;;;;;;;;;;6247674;23;19926;-71
2023/12/21 17:37:11;;;;;;;;;;;;;;;;;;6247350;23;19931;-70
2023/12/21 17:39:38;;;;;;;;;;;;;;;;;;6247338;23;20335;-70
2023/12/21 17:42:05;;;;;;;;;;;;;;;;;;6247599;23;19920;-71
2023/12/21 17:44:32;;;;;;;;;;;;;;;;;;6247694;23;19919;-71
2023/12/21 17:46:59;;;;;;;;;;;;;;;;;;6248083;23;19967;-71
2023/12/21 17:49:26;;;;;;;;;;;;;;;;;;6247710;23;19920;-71
2023/12/21 17:51:53;;;;;;;;;;;;;;;;;;6248021;23;19924;-71
2023/12/21 17:54:21;;;;;;;;;;;;;;;;;;6247719;23;19920;-70
2023/12/21 17:56:49;;;;;;;;;;;;;;;;;;6247813;23;19943;-71
2023/12/21 17:59:16;;;;;;;;;;;;;;;;;;6248041;23;19920;-70
2023/12/21 18:01:43;;;;;;;;;;;;;;;;;;6248005;23;19919;-70
2023/12/21 18:04:10;;;;;;;;;;;;;;;;;;6248321;23;19919;-70
2023/12/21 18:06:37;;;;;;;;;;;;;;;;;;6247978;23;19938;-70
2023/12/21 18:09:04;;;;;;;;;;;;;;;;;;6247899;23;19926;-70
2023/12/21 18:11:31;;;;;;;;;;;;;;;;;;6247840;23;19946;-71
2023/12/21 18:13:58;;;;;;;;;;;;;;;;;;6247840;23;19943;-69
2023/12/21 18:16:25;;;;;;;;;;;;;;;;;;6248147;23;19919;-71
2023/12/21 18:18:52;;;;;;;;;;;;;;;;;;6248140;23;19924;-71
2023/12/21 18:21:19;;;;;;;;;;;;;;;;;;6247842;23;19998;-70
2023/12/21 18:23:46;;;;;;;;;;;;;;;;;;6247896;23;19927;-71
2023/12/21 18:26:13;;;;;;;;;;;;;;;;;;6248121;23;19926;-70
2023/12/21 18:28:40;;;;;;;;;;;;;;;;;;6247971;23;19919;-71
2023/12/21 18:31:06;;;;;;;;;;;;;;;;;;6247762;23;19923;-71
2023/12/21 18:33:33;;;;;;;;;;;;;;;;;;6247985;23;19919;-69
2023/12/21 18:36:00;;;;;;;;;;;;;;;;;;6247910;23;19926;-72
2023/12/21 18:38:27;;;;;;;;;;;;;;;;;;6247885;23;19919;-71
2023/12/21 18:40:54;;;;;;;;;;;;;;;;;;6247357;23;19919;-71
2023/12/21 18:43:21;;;;;;;;;;;;;;;;;;6247842;23;19943;-71
2023/12/21 18:45:51;;;;;;;;;;;;;;;;;;6247648;23;19927;-70
2023/12/21 18:48:17;;;;;;;;;;;;;;;;;;6247599;23;19962;-70
2023/12/21 18:50:44;;;;;;;;;;;;;;;;;;6247927;23;19920;-71
2023/12/21 18:53:11;;;;;;;;;;;;;;;;;;6247686;23;19942;-72
2023/12/21 18:55:38;;;;;;;;;;;;;;;;;;6247616;23;19927;-70
2023/12/21 18:58:06;;;;;;;;;;;;;;;;;;6247213;23;20370;-72
2023/12/21 19:00:33;;;;;;;;;;;;;;;;;;6247459;23;19920;-70
2023/12/21 19:03:00;;;;;;;;;;;;;;;;;;6248713;23;19924;-71
2023/12/21 19:05:27;;;;;;;;;;;;;;;;;;6247650;23;19927;-71
2023/12/21 19:07:54;;;;;;;;;;;;;;;;;;6247456;23;19920;-70
2023/12/21 19:10:21;;;;;;;;;;;;;;;;;;6247121;23;19919;-70
2023/12/21 19:12:48;;;;;;;;;;;;;;;;;;6246963;23;19919;-71
2023/12/21 19:15:15;;;;;;;;;;;;;;;;;;6247716;23;19927;-72
2023/12/21 19:17:42;;;;;;;;;;;;;;;;;;6247572;23;20014;-71
2023/12/21 19:20:09;;;;;;;;;;;;;;;;;;6247370;23;20355;-70
2023/12/21 19:22:36;;;;;;;;;;;;;;;;;;6247529;23;19924;-70
2023/12/21 19:25:03;;;;;;;;;;;;;;;;;;6247739;23;19924;-72
2023/12/21 19:27:30;;;;;;;;;;;;;;;;;;6247308;23;19966;-71
2023/12/21 19:29:59;;;;;;;;;;;;;;;;;;6246908;23;21304;-72
2023/12/21 19:32:26;;;;;;;;;;;;;;;;;;6247091;23;19927;-72
2023/12/21 19:34:52;;;;;;;;;;;;;;;;;;6247032;23;19923;-71
2023/12/21 19:37:21;;;;;;;;;;;;;;;;;;6247405;23;19920;-71
2023/12/21 19:39:48;;;;;;;;;;;;;;;;;;6247041;23;19920;-70
2023/12/21 19:42:15;;;;;;;;;;;;;;;;;;6247103;23;19986;-70
2023/12/21 19:44:42;;;;;;;;;;;;;;;;;;6247490;23;19924;-71
2023/12/21 19:47:09;;;;;;;;;;;;;;;;;;6247065;23;19924;-72
2023/12/21 19:49:35;;;;;;;;;;;;;;;;;;6247289;23;19947;-70
2023/12/21 19:52:02;;;;;;;;;;;;;;;;;;6248592;23;19924;-71
2023/12/21 19:54:31;;;;;;;;;;;;;;;;;;6246863;23;19927;-72
2023/12/21 19:56:58;;;;;;;;;;;;;;;;;;6246994;23;19919;-72
2023/12/21 19:59:25;;;;;;;;;;;;;;;;;;6247577;23;19919;-72
2023/12/21 20:01:53;;;;;;;;;;;;;;;;;;6247295;23;19924;-71
2023/12/21 20:04:19;;;;;;;;;;;;;;;;;;6255625;23;19926;-71
2023/12/21 20:06:47;;;;;;;;;;;;;;;;;;6260818;23;19926;-70
2023/12/21 20:09:15;;;;;;;;;;;;;;;;;;6259353;23;19926;-70
2023/12/21 20:11:42;;;;;;;;;;;;;;;;;;6261582;23;19927;-70
2023/12/21 20:14:08;;;;;;;;;;;;;;;;;;6256646;23;19920;-70
2023/12/21 20:16:36;;;;;;;;;;;;;;;;;;6249717;23;19998;-70
2023/12/21 20:19:03;;;;;;;;;;;;;;;;;;6248286;23;19941;-71
2023/12/21 20:21:31;;;;;;;;;;;;;;;;;;6247064;23;19975;-71
2023/12/21 20:23:58;;;;;;;;;;;;;;;;;;6247450;23;19955;-71